MSC Preziosa — 3FOA6 — position and weather

sailwx.info

Track history (hours):
 
Tides and Currents Weather Stations Pressure Air Temp Water Temp Dewpoint Dewpoint Depression Visibility Wind Speed Wind Dir Waves Ship Positions

MSC Preziosa

Last reported at 2017-Nov-08 17:35 UTC. Time now 2017-Nov-18 19:45 UTC.
Position N 28°24' W 016°15'.
Warning: this ship's position is 10 days out of date.

Length 333 m; draft 8.6 m.

Type: Ship. MMSI: 371861000.

Date/timePositionNaut miles runAvg speedWind from/ knotsBaromVisibWave heightAir tempDewpointWater temp
2017-Nov-08 17:35N 28°24' W 016°15'220.6
2017-Nov-08 17:30N 28°25' W 016°15'3 4.7
2017-Nov-08 16:50N 28°29' W 016°14'0 0.0
2017-Nov-08 16:17N 28°29' W 016°14'0 0.0
2017-Nov-08 15:54N 28°29' W 016°14'0 0.0
2017-Nov-08 15:28N 28°29' W 016°14'0 0.0
2017-Nov-08 14:43N 28°29' W 016°14'0 0.0
2017-Nov-08 14:16N 28°29' W 016°14'0 0.0
2017-Nov-08 13:43N 28°29' W 016°14'0 0.0
2017-Nov-08 13:23N 28°29' W 016°14'0 0.0
2017-Nov-08 12:53N 28°29' W 016°14'0 0.0
2017-Nov-08 12:23N 28°29' W 016°14'0 0.0
2017-Nov-08 11:56N 28°29' W 016°14'0 0.0
2017-Nov-08 11:26N 28°29' W 016°14'0 0.0
2017-Nov-08 10:56N 28°29' W 016°14'0 0.0
2017-Nov-08 10:23N 28°29' W 016°14'0 0.0
2017-Nov-08 09:56N 28°29' W 016°14'0 0.0
2017-Nov-08 09:26N 28°29' W 016°14'0 0.0
2017-Nov-08 08:44N 28°29' W 016°14'0 0.0
2017-Nov-08 08:26N 28°29' W 016°14'0 0.0
2017-Nov-08 08:00N 28°29' W 016°14'1 1.9
2017-Nov-08 07:30N 28°28' W 016°13'3 6.9
2017-Nov-08 07:00N 28°29' W 016°09'816.1
2017-Nov-08 06:30N 28°35' W 016°04'917.5
2017-Nov-08 06:01N 28°44' W 016°06'1017.0
2017-Nov-08 05:26N 28°53' W 016°08'817.0
2017-Nov-08 04:57N 29°02' W 016°09'917.4
2017-Nov-08 04:24N 29°11' W 016°11'1017.5
2017-Nov-08 03:50N 29°21' W 016°13'  
2017-Nov-05 20:56N 38°10' W 009°58'615.3
2017-Nov-05 20:30N 38°14' W 009°52'815.3
2017-Nov-05 20:00N 38°20' W 009°45'715.0
2017-Nov-05 19:30N 38°25' W 009°38'715.0
2017-Nov-05 19:00N 38°30' W 009°31'815.2
2017-Nov-05 18:30N 38°36' W 009°24'917.6
2017-Nov-05 18:00N 38°41' W 009°16'612.9
2017-Nov-05 17:30N 38°42' W 009°08'1 1.3
2017-Nov-05 17:00N 38°43' W 009°07'0 0.0
2017-Nov-05 16:27N 38°43' W 009°07'0 0.0
2017-Nov-05 16:00N 38°43' W 009°07'0 0.0
2017-Nov-05 15:30N 38°43' W 009°07'0 0.0
2017-Nov-05 15:00N 38°43' W 009°07'0 0.0
2017-Nov-05 14:30N 38°43' W 009°07'0 0.0
2017-Nov-05 14:00N 38°43' W 009°07'0 0.0
2017-Nov-05 13:30N 38°43' W 009°07'0 0.0
2017-Nov-05 13:00N 38°43' W 009°07'0 0.0
2017-Nov-05 12:30N 38°43' W 009°07'0 0.0
2017-Nov-05 12:00N 38°43' W 009°07'0 0.0
2017-Nov-05 11:30N 38°43' W 009°07'0 0.0
2017-Nov-05 11:00N 38°43' W 009°07'0 0.0
2017-Nov-05 10:30N 38°43' W 009°07'0 0.0
2017-Nov-05 10:00N 38°43' W 009°07'0 0.0
2017-Nov-05 09:30N 38°43' W 009°07'0 0.0
2017-Nov-05 09:00N 38°43' W 009°07'0 0.0
2017-Nov-05 08:30N 38°43' W 009°07'0 0.0
2017-Nov-05 08:00N 38°43' W 009°07'2 4.9
2017-Nov-05 07:30N 38°42' W 009°10'611.2
2017-Nov-05 07:01N 38°41' W 009°17'815.2
2017-Nov-05 06:31N 38°35' W 009°24'816.5
2017-Nov-05 06:01N 38°27' W 009°24'816.4
2017-Nov-05 05:31N 38°19' W 009°23'816.4
2017-Nov-05 05:01N 38°11' W 009°23'917.4
2017-Nov-05 04:31N 38°02' W 009°23'917.9
2017-Nov-05 04:01N 37°53' W 009°23'918.3
2017-Nov-05 03:31N 37°44' W 009°23'918.1
2017-Nov-05 03:01N 37°35' W 009°23'5817.1
2017-Nov-04 23:37N 36°42' W 008°53'221.6
2017-Nov-04 23:31N 36°42' W 008°50'1121.7
2017-Nov-04 23:00N 36°41' W 008°37'1121.7
2017-Nov-04 22:30N 36°40' W 008°23'1121.5
2017-Nov-04 22:00N 36°39' W 008°10'137 6.6
2017-Nov-04 01:09N 36°00' W 005°27'317.2
2017-Nov-04 00:59N 36°01' W 005°24'917.8
2017-Nov-04 00:31N 36°03' W 005°14'21316.0
2017-Nov-03 11:12N 37°15' W 001°03'418.8
2017-Nov-03 10:59N 37°17' W 000°59'918.9
2017-Nov-03 10:30N 37°23' W 000°50'919.0
2017-Nov-03 10:00N 37°29' W 000°41'917.4
2017-Nov-03 09:30N 37°35' W 000°33'816.3
2017-Nov-03 09:00N 37°42' W 000°27'816.3
2017-Nov-03 08:30N 37°48' W 000°21'916.5
2017-Nov-03 07:58N 37°56' W 000°15'716.3
2017-Nov-03 07:30N 38°02' W 000°10'19316.4
2017-Nov-02 19:45N 40°51' E 001°52'416.2
2017-Nov-02 19:30N 40°54' E 001°55'816.2
2017-Nov-02 19:00N 41°01' E 001°60'816.2
2017-Nov-02 18:30N 41°08' E 002°05'815.2
2017-Nov-02 17:59N 41°15' E 002°10'4 0.5
2017-Nov-02 10:19N 41°19' E 002°10'14618.9
2017-Nov-02 02:33N 42°19' E 005°09'720.0
2017-Nov-02 02:12N 42°22' E 005°18'620.3
2017-Nov-02 01:54N 42°25' E 005°25'820.0
2017-Nov-02 01:30N 42°28' E 005°35'1421.7
2017-Nov-02 00:52N 42°34' E 005°52'3022.3
2017-Nov-01 23:30N 42°47' E 006°30'2722.1
2017-Nov-01 22:16N 43°04' E 006°58'621.9
2017-Nov-01 22:00N 43°08' E 007°04'1121.6
2017-Nov-01 21:31N 43°15' E 007°15'1121.6
2017-Nov-01 21:00N 43°22' E 007°27'4021.9
2017-Nov-01 19:12N 43°48' E 008°08'522.0
2017-Nov-01 18:58N 43°51' E 008°13'1022.0
2017-Nov-01 18:30N 43°58' E 008°24'51 2.9
2017-Nov-01 01:12N 43°24' E 007°32'318.5
2017-Nov-01 01:01N 43°22' E 007°28'918.4
2017-Nov-01 00:31N 43°17' E 007°17'918.2
2017-Nov-01 00:00N 43°13' E 007°06'7516.6
2017-Oct-31 19:28N 43°09' E 005°23'817.9
2017-Oct-31 19:00N 43°16' E 005°16'6 0.6
2017-Oct-31 09:44N 43°21' E 005°19'1 5.3
2017-Oct-31 09:30N 43°21' E 005°18'815.5
2017-Oct-31 09:00N 43°14' E 005°12'1019.2
2017-Oct-31 08:30N 43°06' E 005°05'1019.1
2017-Oct-31 08:00N 42°58' E 004°58'918.8
2017-Oct-31 07:30N 42°50' E 004°52'918.8
2017-Oct-31 07:00N 42°42' E 004°45'918.7
2017-Oct-31 06:30N 42°34' E 004°38'1118.7
2017-Oct-31 05:55N 42°24' E 004°30'818.5
2017-Oct-31 05:30N 42°18' E 004°25'918.4
2017-Oct-31 05:00N 42°10' E 004°19'13317.4
2017-Oct-30 21:22N 40°17' E 002°47'818.7
2017-Oct-30 20:57N 40°10' E 002°42'919.1
2017-Oct-30 20:30N 40°03' E 002°36'3618.2
2017-Oct-30 18:32N 39°28' E 002°22'121.4
2017-Oct-30 18:30N 39°28' E 002°23'918.1
2017-Oct-30 18:00N 39°28' E 002°35'611.6
2017-Oct-30 17:30N 39°33' E 002°38'0 0.0
2017-Oct-30 16:59N 39°33' E 002°38'0 0.0
2017-Oct-30 16:30N 39°33' E 002°38'0 0.0
2017-Oct-30 15:59N 39°33' E 002°38'0 0.0
2017-Oct-30 15:29N 39°33' E 002°38'0 0.0
2017-Oct-30 14:59N 39°33' E 002°38'0 0.0
2017-Oct-30 13:59N 39°33' E 002°38'0 0.0
2017-Oct-30 13:29N 39°33' E 002°38'0 0.0
2017-Oct-30 12:56N 39°33' E 002°38'0 0.0
2017-Oct-30 12:30N 39°33' E 002°38'0 0.0
2017-Oct-30 12:01N 39°33' E 002°38'0 0.0
2017-Oct-30 11:28N 39°33' E 002°38'0 0.0
2017-Oct-30 11:01N 39°33' E 002°38'0 0.0
2017-Oct-30 10:31N 39°33' E 002°38'0 0.0
2017-Oct-30 09:58N 39°33' E 002°38'0 0.0
2017-Oct-30 09:31N 39°33' E 002°38'0 0.0
2017-Oct-30 09:00N 39°33' E 002°38'0 0.0
2017-Oct-30 08:30N 39°33' E 002°38'0 0.0
2017-Oct-30 07:54N 39°33' E 002°38'0 0.0
2017-Oct-30 07:30N 39°33' E 002°38'0 0.0
2017-Oct-30 06:59N 39°33' E 002°38'0 0.0
2017-Oct-30 06:27N 39°33' E 002°38'0 0.0
2017-Oct-30 06:00N 39°33' E 002°38'0 0.0
2017-Oct-30 05:30N 39°33' E 002°38'0 0.0
2017-Oct-30 05:00N 39°33' E 002°38'0 0.0
2017-Oct-30 04:29N 39°33' E 002°38'0 0.0
2017-Oct-30 03:59N 39°33' E 002°38'0 0.0
2017-Oct-30 03:29N 39°33' E 002°38'0 0.0
2017-Oct-30 02:58N 39°33' E 002°38'0 0.0
2017-Oct-30 02:28N 39°33' E 002°38'0 0.0
2017-Oct-30 01:58N 39°33' E 002°38'0 0.0
2017-Oct-30 01:28N 39°33' E 002°38'0 0.0
2017-Oct-30 00:58N 39°33' E 002°38'0 0.0
2017-Oct-30 00:28N 39°33' E 002°38'0 0.0
2017-Oct-30 00:00N 39°33' E 002°38'0 0.0
2017-Oct-29 23:30N 39°33' E 002°38'0 0.0
2017-Oct-29 23:00N 39°33' E 002°38'0 0.0
2017-Oct-29 22:30N 39°33' E 002°38'0 0.0
2017-Oct-29 22:00N 39°33' E 002°38'0 0.0
2017-Oct-29 21:30N 39°33' E 002°38'0 0.0
2017-Oct-29 21:00N 39°33' E 002°38'0 0.0
2017-Oct-29 20:30N 39°33' E 002°38'0 0.0
2017-Oct-29 20:00N 39°33' E 002°38'0 0.0
2017-Oct-29 19:30N 39°33' E 002°38'0 0.0
2017-Oct-29 19:00N 39°33' E 002°38'0 0.0
2017-Oct-29 18:30N 39°33' E 002°38'0 0.0
2017-Oct-29 18:00N 39°33' E 002°38'  
Track history (hours):
 
Tides and Currents Weather Stations Pressure Air Temp Water Temp Dewpoint Dewpoint Depression Visibility Wind Speed Wind Dir Waves Ship Positions

MSC Preziosa

Last reported at 2017-Nov-08 17:35 UTC. Time now 2017-Nov-18 19:45 UTC.
Position N 28°24' W 016°15'.
Warning: this ship's position is 10 days out of date.

Length 333 m; draft 8.6 m.

Type: Ship. MMSI: 371861000.

Date/timePositionNaut miles runAvg speedWind from/ knotsBaromVisibWave heightAir tempDewpointWater temp
2017-Nov-08 17:35N 28°24' W 016°15'220.6
2017-Nov-08 17:30N 28°25' W 016°15'3 4.7
2017-Nov-08 16:50N 28°29' W 016°14'0 0.0
2017-Nov-08 16:17N 28°29' W 016°14'0 0.0
2017-Nov-08 15:54N 28°29' W 016°14'0 0.0
2017-Nov-08 15:28N 28°29' W 016°14'0 0.0
2017-Nov-08 14:43N 28°29' W 016°14'0 0.0
2017-Nov-08 14:16N 28°29' W 016°14'0 0.0
2017-Nov-08 13:43N 28°29' W 016°14'0 0.0
2017-Nov-08 13:23N 28°29' W 016°14'0 0.0
2017-Nov-08 12:53N 28°29' W 016°14'0 0.0
2017-Nov-08 12:23N 28°29' W 016°14'0 0.0
2017-Nov-08 11:56N 28°29' W 016°14'0 0.0
2017-Nov-08 11:26N 28°29' W 016°14'0 0.0
2017-Nov-08 10:56N 28°29' W 016°14'0 0.0
2017-Nov-08 10:23N 28°29' W 016°14'0 0.0
2017-Nov-08 09:56N 28°29' W 016°14'0 0.0
2017-Nov-08 09:26N 28°29' W 016°14'0 0.0
2017-Nov-08 08:44N 28°29' W 016°14'0 0.0
2017-Nov-08 08:26N 28°29' W 016°14'0 0.0
2017-Nov-08 08:00N 28°29' W 016°14'1 1.9
2017-Nov-08 07:30N 28°28' W 016°13'3 6.9
2017-Nov-08 07:00N 28°29' W 016°09'816.1
2017-Nov-08 06:30N 28°35' W 016°04'917.5
2017-Nov-08 06:01N 28°44' W 016°06'1017.0
2017-Nov-08 05:26N 28°53' W 016°08'817.0
2017-Nov-08 04:57N 29°02' W 016°09'917.4
2017-Nov-08 04:24N 29°11' W 016°11'1017.5
2017-Nov-08 03:50N 29°21' W 016°13'  
2017-Nov-05 20:56N 38°10' W 009°58'615.3
2017-Nov-05 20:30N 38°14' W 009°52'815.3
2017-Nov-05 20:00N 38°20' W 009°45'715.0
2017-Nov-05 19:30N 38°25' W 009°38'715.0
2017-Nov-05 19:00N 38°30' W 009°31'815.2
2017-Nov-05 18:30N 38°36' W 009°24'917.6
2017-Nov-05 18:00N 38°41' W 009°16'612.9
2017-Nov-05 17:30N 38°42' W 009°08'1 1.3
2017-Nov-05 17:00N 38°43' W 009°07'0 0.0
2017-Nov-05 16:27N 38°43' W 009°07'0 0.0
2017-Nov-05 16:00N 38°43' W 009°07'0 0.0
2017-Nov-05 15:30N 38°43' W 009°07'0 0.0
2017-Nov-05 15:00N 38°43' W 009°07'0 0.0
2017-Nov-05 14:30N 38°43' W 009°07'0 0.0
2017-Nov-05 14:00N 38°43' W 009°07'0 0.0
2017-Nov-05 13:30N 38°43' W 009°07'0 0.0
2017-Nov-05 13:00N 38°43' W 009°07'0 0.0
2017-Nov-05 12:30N 38°43' W 009°07'0 0.0
2017-Nov-05 12:00N 38°43' W 009°07'0 0.0
2017-Nov-05 11:30N 38°43' W 009°07'0 0.0
2017-Nov-05 11:00N 38°43' W 009°07'0 0.0
2017-Nov-05 10:30N 38°43' W 009°07'0 0.0
2017-Nov-05 10:00N 38°43' W 009°07'0 0.0
2017-Nov-05 09:30N 38°43' W 009°07'0 0.0
2017-Nov-05 09:00N 38°43' W 009°07'0 0.0
2017-Nov-05 08:30N 38°43' W 009°07'0 0.0
2017-Nov-05 08:00N 38°43' W 009°07'2 4.9
2017-Nov-05 07:30N 38°42' W 009°10'611.2
2017-Nov-05 07:01N 38°41' W 009°17'815.2
2017-Nov-05 06:31N 38°35' W 009°24'816.5
2017-Nov-05 06:01N 38°27' W 009°24'816.4
2017-Nov-05 05:31N 38°19' W 009°23'816.4
2017-Nov-05 05:01N 38°11' W 009°23'917.4
2017-Nov-05 04:31N 38°02' W 009°23'917.9
2017-Nov-05 04:01N 37°53' W 009°23'918.3
2017-Nov-05 03:31N 37°44' W 009°23'918.1
2017-Nov-05 03:01N 37°35' W 009°23'5817.1
2017-Nov-04 23:37N 36°42' W 008°53'221.6
2017-Nov-04 23:31N 36°42' W 008°50'1121.7
2017-Nov-04 23:00N 36°41' W 008°37'1121.7
2017-Nov-04 22:30N 36°40' W 008°23'1121.5
2017-Nov-04 22:00N 36°39' W 008°10'137 6.6
2017-Nov-04 01:09N 36°00' W 005°27'317.2
2017-Nov-04 00:59N 36°01' W 005°24'917.8
2017-Nov-04 00:31N 36°03' W 005°14'21316.0
2017-Nov-03 11:12N 37°15' W 001°03'418.8
2017-Nov-03 10:59N 37°17' W 000°59'918.9
2017-Nov-03 10:30N 37°23' W 000°50'919.0
2017-Nov-03 10:00N 37°29' W 000°41'917.4
2017-Nov-03 09:30N 37°35' W 000°33'816.3
2017-Nov-03 09:00N 37°42' W 000°27'816.3
2017-Nov-03 08:30N 37°48' W 000°21'916.5
2017-Nov-03 07:58N 37°56' W 000°15'716.3
2017-Nov-03 07:30N 38°02' W 000°10'19316.4
2017-Nov-02 19:45N 40°51' E 001°52'416.2
2017-Nov-02 19:30N 40°54' E 001°55'816.2
2017-Nov-02 19:00N 41°01' E 001°60'816.2
2017-Nov-02 18:30N 41°08' E 002°05'815.2
2017-Nov-02 17:59N 41°15' E 002°10'4 0.5
2017-Nov-02 10:19N 41°19' E 002°10'14618.9
2017-Nov-02 02:33N 42°19' E 005°09'720.0
2017-Nov-02 02:12N 42°22' E 005°18'620.3
2017-Nov-02 01:54N 42°25' E 005°25'820.0
2017-Nov-02 01:30N 42°28' E 005°35'1421.7
2017-Nov-02 00:52N 42°34' E 005°52'3022.3
2017-Nov-01 23:30N 42°47' E 006°30'2722.1
2017-Nov-01 22:16N 43°04' E 006°58'621.9
2017-Nov-01 22:00N 43°08' E 007°04'1121.6
2017-Nov-01 21:31N 43°15' E 007°15'1121.6
2017-Nov-01 21:00N 43°22' E 007°27'4021.9
2017-Nov-01 19:12N 43°48' E 008°08'522.0
2017-Nov-01 18:58N 43°51' E 008°13'1022.0
2017-Nov-01 18:30N 43°58' E 008°24'51 2.9
2017-Nov-01 01:12N 43°24' E 007°32'318.5
2017-Nov-01 01:01N 43°22' E 007°28'918.4
2017-Nov-01 00:31N 43°17' E 007°17'918.2
2017-Nov-01 00:00N 43°13' E 007°06'7516.6
2017-Oct-31 19:28N 43°09' E 005°23'817.9
2017-Oct-31 19:00N 43°16' E 005°16'6 0.6
2017-Oct-31 09:44N 43°21' E 005°19'1 5.3
2017-Oct-31 09:30N 43°21' E 005°18'815.5
2017-Oct-31 09:00N 43°14' E 005°12'1019.2
2017-Oct-31 08:30N 43°06' E 005°05'1019.1
2017-Oct-31 08:00N 42°58' E 004°58'918.8
2017-Oct-31 07:30N 42°50' E 004°52'918.8
2017-Oct-31 07:00N 42°42' E 004°45'918.7
2017-Oct-31 06:30N 42°34' E 004°38'1118.7
2017-Oct-31 05:55N 42°24' E 004°30'818.5
2017-Oct-31 05:30N 42°18' E 004°25'918.4
2017-Oct-31 05:00N 42°10' E 004°19'13317.4
2017-Oct-30 21:22N 40°17' E 002°47'818.7
2017-Oct-30 20:57N 40°10' E 002°42'919.1
2017-Oct-30 20:30N 40°03' E 002°36'3618.2
2017-Oct-30 18:32N 39°28' E 002°22'121.4
2017-Oct-30 18:30N 39°28' E 002°23'918.1
2017-Oct-30 18:00N 39°28' E 002°35'611.6
2017-Oct-30 17:30N 39°33' E 002°38'0 0.0
2017-Oct-30 16:59N 39°33' E 002°38'0 0.0
2017-Oct-30 16:30N 39°33' E 002°38'0 0.0
2017-Oct-30 15:59N 39°33' E 002°38'0 0.0
2017-Oct-30 15:29N 39°33' E 002°38'0 0.0
2017-Oct-30 14:59N 39°33' E 002°38'0 0.0
2017-Oct-30 13:59N 39°33' E 002°38'0 0.0
2017-Oct-30 13:29N 39°33' E 002°38'0 0.0
2017-Oct-30 12:56N 39°33' E 002°38'0 0.0
2017-Oct-30 12:30N 39°33' E 002°38'0 0.0
2017-Oct-30 12:01N 39°33' E 002°38'0 0.0
2017-Oct-30 11:28N 39°33' E 002°38'0 0.0
2017-Oct-30 11:01N 39°33' E 002°38'0 0.0
2017-Oct-30 10:31N 39°33' E 002°38'0 0.0
2017-Oct-30 09:58N 39°33' E 002°38'0 0.0
2017-Oct-30 09:31N 39°33' E 002°38'0 0.0
2017-Oct-30 09:00N 39°33' E 002°38'0 0.0
2017-Oct-30 08:30N 39°33' E 002°38'0 0.0
2017-Oct-30 07:54N 39°33' E 002°38'0 0.0
2017-Oct-30 07:30N 39°33' E 002°38'0 0.0
2017-Oct-30 06:59N 39°33' E 002°38'0 0.0
2017-Oct-30 06:27N 39°33' E 002°38'0 0.0
2017-Oct-30 06:00N 39°33' E 002°38'0 0.0
2017-Oct-30 05:30N 39°33' E 002°38'0 0.0
2017-Oct-30 05:00N 39°33' E 002°38'0 0.0
2017-Oct-30 04:29N 39°33' E 002°38'0 0.0
2017-Oct-30 03:59N 39°33' E 002°38'0 0.0
2017-Oct-30 03:29N 39°33' E 002°38'0 0.0
2017-Oct-30 02:58N 39°33' E 002°38'0 0.0
2017-Oct-30 02:28N 39°33' E 002°38'0 0.0
2017-Oct-30 01:58N 39°33' E 002°38'0 0.0
2017-Oct-30 01:28N 39°33' E 002°38'0 0.0
2017-Oct-30 00:58N 39°33' E 002°38'0 0.0
2017-Oct-30 00:28N 39°33' E 002°38'0 0.0
2017-Oct-30 00:00N 39°33' E 002°38'0 0.0
2017-Oct-29 23:30N 39°33' E 002°38'0 0.0
2017-Oct-29 23:00N 39°33' E 002°38'0 0.0
2017-Oct-29 22:30N 39°33' E 002°38'0 0.0
2017-Oct-29 22:00N 39°33' E 002°38'0 0.0
2017-Oct-29 21:30N 39°33' E 002°38'0 0.0
2017-Oct-29 21:00N 39°33' E 002°38'0 0.0
2017-Oct-29 20:30N 39°33' E 002°38'0 0.0
2017-Oct-29 20:00N 39°33' E 002°38'0 0.0
2017-Oct-29 19:30N 39°33' E 002°38'0 0.0
2017-Oct-29 19:00N 39°33' E 002°38'0 0.0
2017-Oct-29 18:30N 39°33' E 002°38'0 0.0
2017-Oct-29 18:00N 39°33' E 002°38'  

Dump ship's entire track history